Time;durP1;ratioP1;P1;durP2;ratioP2;P2;SDS_P1;SDS_P2;PMS_P1;PMS_P2;Temp;Humidity;BMP_temperature;BMP_pressure;BME280_temperature;BME280_humidity;BME280_pressure;Samples;Min_cycle;Max_cycle;Signal;HPM_P1;HPM_P2
2023/09/19 00:02:14;;;;;;;5.57;2.00;;;;;;;;;;4954498;28;20053;-63
2023/09/19 00:04:39;;;;;;;4.40;2.13;;;;;;;;;;4954902;28;20625;-63
2023/09/19 00:07:05;;;;;;;3.30;2.00;;;;;;;;;;4963156;28;20473;-64
2023/09/19 00:09:36;;;;;;;2.65;1.58;;;;;;;;;;4972928;28;20432;-63
2023/09/19 00:12:03;;;;;;;3.75;2.00;;;;;;;;;;4972877;28;20041;-63
2023/09/19 00:14:29;;;;;;;4.45;2.05;;;;;;;;;;4973915;28;20127;-63
2023/09/19 00:16:54;;;;;;;4.95;2.05;;;;;;;;;;4974066;28;20031;-65
2023/09/19 00:19:20;;;;;;;4.50;1.92;;;;;;;;;;4974064;28;20030;-64
2023/09/19 00:21:47;;;;;;;5.15;2.08;;;;;;;;;;4973971;28;20042;-65
2023/09/19 00:24:13;;;;;;;7.82;2.53;;;;;;;;;;4973779;28;20027;-64
2023/09/19 00:26:39;;;;;;;6.35;2.10;;;;;;;;;;4974085;28;20027;-63
2023/09/19 00:29:08;;;;;;;5.80;1.70;;;;;;;;;;4973721;28;20480;-64
2023/09/19 00:31:34;;;;;;;5.65;2.03;;;;;;;;;;4973879;28;20115;-64
2023/09/19 00:34:06;;;;;;;5.78;1.95;;;;;;;;;;4974044;28;20440;-64
2023/09/19 00:36:33;;;;;;;3.97;1.80;;;;;;;;;;4973744;28;20089;-65
2023/09/19 00:38:59;;;;;;;5.50;1.83;;;;;;;;;;4973698;28;20035;-64
2023/09/19 00:41:24;;;;;;;5.20;1.92;;;;;;;;;;4973754;28;20400;-64
2023/09/19 00:43:50;;;;;;;4.95;1.92;;;;;;;;;;4973643;28;20065;-64
2023/09/19 00:46:18;;;;;;;6.00;2.10;;;;;;;;;;4973875;28;20480;-64
2023/09/19 00:48:44;;;;;;;5.65;2.00;;;;;;;;;;4973889;28;20038;-64
2023/09/19 00:51:10;;;;;;;5.78;2.30;;;;;;;;;;4973647;28;20402;-64
2023/09/19 00:53:36;;;;;;;4.15;1.75;;;;;;;;;;4973754;28;20027;-64
2023/09/19 00:56:07;;;;;;;4.20;1.80;;;;;;;;;;4973725;28;20027;-64
2023/09/19 00:58:33;;;;;;;4.25;1.77;;;;;;;;;;4973295;28;20492;-64
2023/09/19 01:00:59;;;;;;;4.30;1.90;;;;;;;;;;4973394;28;20511;-63
2023/09/19 01:03:25;;;;;;;3.17;1.73;;;;;;;;;;4973591;28;20113;-63
2023/09/19 01:05:50;;;;;;;5.28;1.90;;;;;;;;;;4973541;28;20113;-64
2023/09/19 01:08:16;;;;;;;6.05;2.10;;;;;;;;;;4973534;28;20066;-65
2023/09/19 01:10:55;;;;;;;4.43;1.92;;;;;;;;;;4975483;28;20026;-64
2023/09/19 01:13:21;;;;;;;3.65;1.80;;;;;;;;;;4977091;28;20058;-65
2023/09/19 01:16:19;;;;;;;6.63;2.33;;;;;;;;;;4977286;28;20023;-64
2023/09/19 01:18:57;;;;;;;3.38;2.00;;;;;;;;;;4977161;28;20431;-65
2023/09/19 01:21:34;;;;;;;4.53;1.90;;;;;;;;;;4977231;28;20035;-63
2023/09/19 01:24:24;;;;;;;4.70;2.25;;;;;;;;;;4977004;28;20027;-63
2023/09/19 01:27:31;;;;;;;6.75;2.30;;;;;;;;;;4976984;28;20030;-64
2023/09/19 01:30:15;;;;;;;4.60;2.08;;;;;;;;;;4967868;28;20039;-64
2023/09/19 01:32:43;;;;;;;5.72;2.25;;;;;;;;;;4977142;28;20113;-64
2023/09/19 01:35:12;;;;;;;4.28;1.70;;;;;;;;;;4976876;28;20073;-63
2023/09/19 01:37:37;;;;;;;4.85;1.92;;;;;;;;;;4976650;28;20066;-65
2023/09/19 01:40:11;;;;;;;4.50;1.83;;;;;;;;;;4967085;28;20066;-64
2023/09/19 01:42:55;;;;;;;6.97;2.28;;;;;;;;;;4957341;28;20035;-64
2023/09/19 01:45:48;;;;;;;7.22;2.08;;;;;;;;;;4957649;28;20417;-65
2023/09/19 01:48:31;;;;;;;3.88;1.95;;;;;;;;;;4957386;28;20023;-63
2023/09/19 01:51:06;;;;;;;4.65;1.80;;;;;;;;;;4957300;28;20075;-63
2023/09/19 01:54:09;;;;;;;6.82;2.38;;;;;;;;;;4957352;28;20037;-64
2023/09/19 01:56:42;;;;;;;5.53;1.80;;;;;;;;;;4952743;29;20074;-64
2023/09/19 01:59:13;;;;;;;7.10;2.28;;;;;;;;;;4957201;28;20122;-63
2023/09/19 02:01:40;;;;;;;5.38;1.80;;;;;;;;;;4956851;28;20047;-64
2023/09/19 02:04:05;;;;;;;5.40;1.98;;;;;;;;;;4957090;28;20098;-63
2023/09/19 02:06:32;;;;;;;5.03;2.08;;;;;;;;;;4960976;28;20114;-65
2023/09/19 02:08:57;;;;;;;4.43;2.00;;;;;;;;;;4976328;28;20157;-63
2023/09/19 02:11:23;;;;;;;4.10;2.00;;;;;;;;;;4975921;28;20101;-63
2023/09/19 02:13:54;;;;;;;2.97;1.63;;;;;;;;;;4976069;28;20110;-64
2023/09/19 02:16:20;;;;;;;;;;;;;;;;;;4976612;28;20026;-63
2023/09/19 02:18:47;;;;;;;4.97;1.95;;;;;;;;;;4975980;28;19914;-63
2023/09/19 02:21:13;;;;;;;5.25;2.00;;;;;;;;;;4975307;28;20417;-64
2023/09/19 02:23:38;;;;;;;4.10;2.03;;;;;;;;;;4975646;28;20082;-63
2023/09/19 02:26:05;;;;;;;4.13;2.10;;;;;;;;;;4975745;28;20023;-63
2023/09/19 02:28:31;;;;;;;4.55;2.00;;;;;;;;;;4975703;28;20472;-64
2023/09/19 02:30:57;;;;;;;4.47;1.95;;;;;;;;;;4975791;28;20464;-63
2023/09/19 02:33:23;;;;;;;8.07;2.45;;;;;;;;;;4975517;28;20090;-64
2023/09/19 02:35:48;;;;;;;5.18;1.90;;;;;;;;;;4975805;28;20493;-64
2023/09/19 02:38:14;;;;;;;5.97;1.98;;;;;;;;;;4983074;28;20125;-64
2023/09/19 02:40:40;;;;;;;10.18;2.65;;;;;;;;;;4986329;28;20076;-65
2023/09/19 02:43:05;;;;;;;5.63;2.00;;;;;;;;;;4980097;28;20023;-65
2023/09/19 02:45:32;;;;;;;4.07;1.98;;;;;;;;;;4991299;28;20029;-64
2023/09/19 02:47:58;;;;;;;7.25;2.42;;;;;;;;;;4980849;28;20364;-63
2023/09/19 02:50:23;;;;;;;7.38;2.70;;;;;;;;;;4985475;28;20031;-64
2023/09/19 02:52:49;;;;;;;4.78;2.40;;;;;;;;;;4987798;28;20037;-64
2023/09/19 02:55:19;;;;;;;4.88;2.03;;;;;;;;;;4978390;28;20031;-65
2023/09/19 02:57:52;;;;;;;5.57;2.20;;;;;;;;;;4963314;28;20408;-65
2023/09/19 03:00:22;;;;;;;5.45;2.70;;;;;;;;;;4986067;28;20050;-66
2023/09/19 03:02:52;;;;;;;7.47;2.50;;;;;;;;;;4983515;28;20391;-65
2023/09/19 03:05:18;;;;;;;5.60;2.17;;;;;;;;;;4994338;28;20038;-64
2023/09/19 03:07:45;;;;;;;13.32;3.25;;;;;;;;;;4980009;28;20391;-65
2023/09/19 03:10:11;;;;;;;6.03;2.53;;;;;;;;;;4975073;28;20045;-63
2023/09/19 03:12:36;;;;;;;15.35;3.75;;;;;;;;;;4974812;28;20105;-66
2023/09/19 03:15:04;;;;;;;9.57;2.92;;;;;;;;;;4974104;28;20037;-64
2023/09/19 03:17:29;;;;;;;11.57;2.63;;;;;;;;;;4975127;28;20031;-64
2023/09/19 03:19:55;;;;;;;9.40;3.10;;;;;;;;;;4973021;28;20433;-63
2023/09/19 03:22:20;;;;;;;4.43;2.25;;;;;;;;;;4972904;28;20101;-63
2023/09/19 03:24:46;;;;;;;6.85;2.30;;;;;;;;;;4971104;28;20085;-63
2023/09/19 03:27:14;;;;;;;5.40;2.63;;;;;;;;;;4972768;28;20500;-63
2023/09/19 03:29:39;;;;;;;6.95;2.28;;;;;;;;;;4972709;28;20034;-64
2023/09/19 03:32:05;;;;;;;9.95;2.72;;;;;;;;;;4972709;28;20027;-64
2023/09/19 03:34:31;;;;;;;7.18;2.45;;;;;;;;;;4973789;28;20441;-63
2023/09/19 03:36:56;;;;;;;5.75;2.22;;;;;;;;;;4974693;28;20109;-64
2023/09/19 03:39:21;;;;;;;4.88;2.25;;;;;;;;;;4970072;28;20062;-64
2023/09/19 03:41:47;;;;;;;5.30;2.25;;;;;;;;;;4955195;28;20024;-63
2023/09/19 03:44:13;;;;;;;5.50;2.20;;;;;;;;;;4955134;28;20024;-65
2023/09/19 03:46:38;;;;;;;4.63;2.17;;;;;;;;;;4955184;28;20050;-65
2023/09/19 03:49:04;;;;;;;9.75;2.35;;;;;;;;;;4955159;28;20031;-65
2023/09/19 03:51:29;;;;;;;5.68;2.15;;;;;;;;;;4955030;28;20078;-63
2023/09/19 03:53:55;;;;;;;6.75;1.95;;;;;;;;;;4954932;28;20042;-63
2023/09/19 03:56:20;;;;;;;8.27;2.63;;;;;;;;;;4954786;28;20377;-64
2023/09/19 03:58:46;;;;;;;10.23;2.30;;;;;;;;;;4954992;28;20461;-64
2023/09/19 04:01:13;;;;;;;4.82;2.20;;;;;;;;;;4954766;28;20047;-63
2023/09/19 04:03:47;;;;;;;5.03;2.30;;;;;;;;;;4954937;28;20122;-64
2023/09/19 04:06:16;;;;;;;5.47;2.50;;;;;;;;;;4956488;28;20023;-63
2023/09/19 04:08:43;;;;;;;7.30;2.10;;;;;;;;;;4974032;28;20117;-63
2023/09/19 04:11:10;;;;;;;7.10;2.30;;;;;;;;;;4974020;28;20106;-64
2023/09/19 04:13:36;;;;;;;8.10;2.10;;;;;;;;;;4974126;28;20480;-63
2023/09/19 04:16:03;;;;;;;6.72;2.17;;;;;;;;;;4973995;28;20550;-65
2023/09/19 04:18:32;;;;;;;4.68;2.40;;;;;;;;;;4973927;28;20031;-63
2023/09/19 04:20:58;;;;;;;5.65;2.20;;;;;;;;;;4973692;28;20030;-64
2023/09/19 04:23:23;;;;;;;5.53;2.05;;;;;;;;;;4973999;28;20461;-63
2023/09/19 04:25:48;;;;;;;5.22;2.30;;;;;;;;;;4973936;28;20079;-66
2023/09/19 04:28:15;;;;;;;3.90;2.50;;;;;;;;;;4973546;28;20479;-65
2023/09/19 04:30:41;;;;;;;6.80;2.08;;;;;;;;;;4974001;28;20030;-63
2023/09/19 04:33:06;;;;;;;7.82;1.95;;;;;;;;;;4974043;28;20057;-66
2023/09/19 04:35:32;;;;;;;7.68;2.75;;;;;;;;;;4973739;28;20019;-64
2023/09/19 04:37:58;;;;;;;4.40;2.00;;;;;;;;;;4974029;28;20027;-63
2023/09/19 04:40:26;;;;;;;4.88;1.90;;;;;;;;;;4961341;28;20485;-63
2023/09/19 04:42:57;;;;;;;6.53;2.08;;;;;;;;;;4954696;28;20027;-65
2023/09/19 04:45:24;;;;;;;5.70;2.15;;;;;;;;;;4955832;28;20438;-65
2023/09/19 04:47:49;;;;;;;6.50;2.00;;;;;;;;;;4958488;28;20428;-64
2023/09/19 04:50:16;;;;;;;4.57;1.92;;;;;;;;;;4958116;28;20031;-66
2023/09/19 04:52:44;;;;;;;5.05;2.05;;;;;;;;;;4958426;28;20031;-65
2023/09/19 04:55:16;;;;;;;8.13;2.10;;;;;;;;;;4958285;28;20023;-65
2023/09/19 04:57:44;;;;;;;6.07;1.98;;;;;;;;;;4958277;28;20421;-63
2023/09/19 05:00:14;;;;;;;3.00;1.83;;;;;;;;;;4958125;28;20067;-67
2023/09/19 05:02:41;;;;;;;8.30;2.20;;;;;;;;;;4957947;28;20059;-66
2023/09/19 05:05:08;;;;;;;8.20;2.33;;;;;;;;;;4957904;28;20038;-64
2023/09/19 05:07:34;;;;;;;6.55;2.45;;;;;;;;;;4970251;28;20026;-64
2023/09/19 05:10:00;;;;;;;5.55;2.20;;;;;;;;;;4977290;28;20511;-63
2023/09/19 05:12:29;;;;;;;6.18;2.35;;;;;;;;;;4977241;28;20031;-64
2023/09/19 05:14:55;;;;;;;6.38;2.20;;;;;;;;;;4977411;28;20326;-64
2023/09/19 05:17:20;;;;;;;7.70;2.33;;;;;;;;;;4977292;28;20033;-64
2023/09/19 05:19:46;;;;;;;8.55;2.22;;;;;;;;;;4976843;28;20041;-64
2023/09/19 05:22:12;;;;;;;6.18;2.35;;;;;;;;;;4976948;28;20432;-63
2023/09/19 05:24:38;;;;;;;5.63;2.58;;;;;;;;;;4976802;28;20045;-64
2023/09/19 05:27:04;;;;;;;6.47;2.00;;;;;;;;;;4977103;28;20042;-64
2023/09/19 05:29:29;;;;;;;2.95;2.05;;;;;;;;;;4976891;28;20353;-63
2023/09/19 05:31:55;;;;;;;4.63;1.83;;;;;;;;;;4976799;28;20499;-65
2023/09/19 05:34:20;;;;;;;4.63;1.90;;;;;;;;;;4976587;28;20069;-63
2023/09/19 05:36:48;;;;;;;5.85;1.95;;;;;;;;;;4976867;28;20019;-64
2023/09/19 05:39:14;;;;;;;7.18;1.65;;;;;;;;;;4973681;28;20031;-63
2023/09/19 05:41:40;;;;;;;3.50;1.67;;;;;;;;;;4957388;28;20111;-64
2023/09/19 05:44:06;;;;;;;3.25;1.70;;;;;;;;;;4957563;28;20050;-66
2023/09/19 05:46:32;;;;;;;3.50;1.77;;;;;;;;;;4957377;28;20493;-64
2023/09/19 05:48:58;;;;;;;3.38;1.95;;;;;;;;;;4957175;28;20070;-63
2023/09/19 05:51:23;;;;;;;5.63;1.55;;;;;;;;;;4957311;28;20042;-65
2023/09/19 05:53:49;;;;;;;3.58;1.58;;;;;;;;;;4957247;28;20034;-64
2023/09/19 05:56:15;;;;;;;3.22;1.73;;;;;;;;;;4955778;28;20024;-63
2023/09/19 05:58:44;;;;;;;2.45;1.50;;;;;;;;;;4956967;28;20034;-63
2023/09/19 06:01:09;;;;;;;4.68;1.58;;;;;;;;;;4955732;29;20058;-65
2023/09/19 06:03:35;;;;;;;3.40;1.40;;;;;;;;;;4956885;28;20027;-63
2023/09/19 06:06:01;;;;;;;2.85;1.70;;;;;;;;;;4957262;28;20070;-65
2023/09/19 06:08:28;;;;;;;3.85;1.75;;;;;;;;;;4956996;28;20039;-64
2023/09/19 06:10:54;;;;;;;5.32;2.22;;;;;;;;;;4956960;29;20465;-65
2023/09/19 06:13:19;;;;;;;3.53;1.50;;;;;;;;;;4956903;28;20036;-64
2023/09/19 06:15:47;;;;;;;3.38;1.38;;;;;;;;;;4956798;28;20023;-64
2023/09/19 06:18:19;;;;;;;3.67;1.50;;;;;;;;;;4956733;28;20486;-63
2023/09/19 06:20:50;;;;;;;2.65;1.35;;;;;;;;;;4956741;28;20115;-64
2023/09/19 06:23:17;;;;;;;5.45;1.75;;;;;;;;;;4956735;28;20551;-64
2023/09/19 06:25:43;;;;;;;3.17;1.60;;;;;;;;;;4971736;28;20038;-64
2023/09/19 06:28:12;;;;;;;5.18;1.40;;;;;;;;;;4975861;28;20027;-64
2023/09/19 06:30:41;;;;;;;2.80;1.40;;;;;;;;;;4976063;28;20046;-65
2023/09/19 06:33:07;;;;;;;6.15;1.67;;;;;;;;;;4975505;28;20038;-63
2023/09/19 06:35:33;;;;;;;3.65;1.40;;;;;;;;;;4975837;28;20034;-63
2023/09/19 06:38:02;;;;;;;7.70;1.60;;;;;;;;;;4975714;28;20035;-64
2023/09/19 06:40:28;;;;;;;4.20;1.40;;;;;;;;;;4962758;28;20118;-63
2023/09/19 06:42:53;;;;;;;6.13;1.50;;;;;;;;;;4956454;28;20106;-64
2023/09/19 06:45:19;;;;;;;4.78;1.55;;;;;;;;;;4956285;28;20030;-63
2023/09/19 06:47:50;;;;;;;2.83;1.30;;;;;;;;;;4956183;29;20477;-65
2023/09/19 06:50:18;;;;;;;3.88;1.58;;;;;;;;;;4954844;29;20393;-64
2023/09/19 06:52:44;;;;;;;4.40;1.45;;;;;;;;;;4956119;28;20444;-64
2023/09/19 06:55:11;;;;;;;4.05;1.40;;;;;;;;;;4956230;28;20050;-65
2023/09/19 06:57:37;;;;;;;3.22;1.38;;;;;;;;;;4956274;28;20053;-64
2023/09/19 07:00:08;;;;;;;3.03;1.60;;;;;;;;;;4955987;28;20544;-63
2023/09/19 07:02:34;;;;;;;3.97;1.38;;;;;;;;;;4955770;29;20054;-64
2023/09/19 07:04:59;;;;;;;3.70;1.30;;;;;;;;;;4956007;28;20106;-63
2023/09/19 07:07:25;;;;;;;4.28;1.35;;;;;;;;;;4966478;28;20043;-67
2023/09/19 07:09:51;;;;;;;3.53;1.40;;;;;;;;;;4975012;28;20480;-63
2023/09/19 07:12:17;;;;;;;4.15;1.30;;;;;;;;;;4975176;28;20122;-64
2023/09/19 07:14:43;;;;;;;4.88;1.33;;;;;;;;;;4975174;28;20432;-65
2023/09/19 07:17:09;;;;;;;4.78;1.48;;;;;;;;;;4974808;28;20093;-63
2023/09/19 07:19:34;;;;;;;8.05;1.67;;;;;;;;;;4974796;28;20027;-65
2023/09/19 07:22:02;;;;;;;4.22;1.40;;;;;;;;;;4974951;28;20373;-66
2023/09/19 07:24:28;;;;;;;3.25;1.50;;;;;;;;;;4974753;28;20023;-67
2023/09/19 07:26:54;;;;;;;3.58;1.27;;;;;;;;;;4974947;28;20030;-64
2023/09/19 07:29:19;;;;;;;4.70;1.70;;;;;;;;;;4974595;28;20373;-64
2023/09/19 07:31:46;;;;;;;6.88;1.60;;;;;;;;;;4974653;28;20030;-64
2023/09/19 07:34:11;;;;;;;4.13;1.40;;;;;;;;;;4974883;28;20440;-63
2023/09/19 07:36:37;;;;;;;5.25;1.35;;;;;;;;;;4974839;28;20027;-64
2023/09/19 07:39:06;;;;;;;2.55;1.20;;;;;;;;;;4974551;28;20114;-63
2023/09/19 07:41:32;;;;;;;2.80;1.27;;;;;;;;;;4974670;28;20041;-64
2023/09/19 07:43:58;;;;;;;4.30;1.60;;;;;;;;;;4974405;28;20388;-64
2023/09/19 07:46:24;;;;;;;3.95;1.50;;;;;;;;;;4974706;28;20018;-63
2023/09/19 07:48:50;;;;;;;3.13;1.48;;;;;;;;;;4974661;28;20035;-64
2023/09/19 07:51:15;;;;;;;4.03;1.30;;;;;;;;;;4974191;28;20118;-66
2023/09/19 07:53:42;;;;;;;4.35;1.40;;;;;;;;;;4974362;28;20400;-66
2023/09/19 07:56:09;;;;;;;5.03;1.55;;;;;;;;;;4974384;28;20026;-65
2023/09/19 07:58:37;;;;;;;6.10;1.60;;;;;;;;;;4973991;28;20037;-65
2023/09/19 08:01:06;;;;;;;5.72;1.50;;;;;;;;;;4974090;28;20046;-64
2023/09/19 08:03:32;;;;;;;2.75;1.20;;;;;;;;;;4974300;28;20038;-64
2023/09/19 08:05:58;;;;;;;6.47;1.52;;;;;;;;;;4974339;28;20037;-64
2023/09/19 08:08:24;;;;;;;5.65;1.60;;;;;;;;;;4974070;28;20031;-64
2023/09/19 08:10:56;;;;;;;8.32;1.60;;;;;;;;;;4974331;28;20105;-63
2023/09/19 08:13:23;;;;;;;5.97;1.60;;;;;;;;;;4974057;28;20461;-63
2023/09/19 08:15:49;;;;;;;6.28;1.58;;;;;;;;;;4974103;28;20033;-65
2023/09/19 08:18:15;;;;;;;5.25;1.50;;;;;;;;;;4974152;28;20109;-63
2023/09/19 08:20:42;;;;;;;5.18;1.75;;;;;;;;;;4973309;28;20759;-64
2023/09/19 08:23:08;;;;;;;3.67;1.35;;;;;;;;;;4974024;28;20381;-63
2023/09/19 08:25:34;;;;;;;6.45;1.60;;;;;;;;;;4973911;28;20041;-64
2023/09/19 08:28:03;;;;;;;6.63;1.80;;;;;;;;;;4973406;28;20030;-64
2023/09/19 08:30:29;;;;;;;4.75;1.73;;;;;;;;;;4973772;28;20038;-64
2023/09/19 08:32:58;;;;;;;5.78;1.40;;;;;;;;;;4973889;28;20029;-65
2023/09/19 08:35:24;;;;;;;7.95;1.40;;;;;;;;;;4973919;28;20027;-66
2023/09/19 08:37:50;;;;;;;4.53;1.50;;;;;;;;;;4973724;28;20034;-64
2023/09/19 08:40:16;;;;;;;5.18;1.42;;;;;;;;;;4962288;28;20060;-64
2023/09/19 08:42:53;;;;;;;5.13;2.03;;;;;;;;;;4954261;28;20027;-64
2023/09/19 08:45:20;;;;;;;4.45;1.63;;;;;;;;;;4954362;28;20031;-65
2023/09/19 08:48:13;;;;;;;3.65;1.50;;;;;;;;;;4954313;28;20031;-64
2023/09/19 08:51:03;;;;;;;4.22;1.58;;;;;;;;;;4954571;28;20015;-66
2023/09/19 08:53:46;;;;;;;2.97;1.20;;;;;;;;;;4954386;28;20027;-65
2023/09/19 08:56:13;;;;;;;5.50;1.65;;;;;;;;;;4954608;28;20119;-64
2023/09/19 08:58:48;;;;;;;5.72;1.52;;;;;;;;;;4954155;28;20038;-66
2023/09/19 09:01:24;;;;;;;2.10;1.40;;;;;;;;;;4954175;29;20499;-64
2023/09/19 09:03:51;;;;;;;5.18;1.90;;;;;;;;;;4954306;28;20027;-65
2023/09/19 09:06:18;;;;;;;10.05;2.00;;;;;;;;;;4956231;28;20039;-67
2023/09/19 09:08:44;;;;;;;3.92;1.85;;;;;;;;;;4973718;28;20105;-64
2023/09/19 09:11:11;;;;;;;4.57;1.92;;;;;;;;;;4973447;28;20031;-68
2023/09/19 09:13:37;;;;;;;7.03;2.38;;;;;;;;;;4973540;28;20106;-68
2023/09/19 09:16:02;;;;;;;6.30;2.10;;;;;;;;;;4973474;28;20101;-62
2023/09/19 09:18:32;;;;;;;7.10;1.73;;;;;;;;;;4973551;28;20493;-63
2023/09/19 09:20:57;;;;;;;4.70;1.60;;;;;;;;;;4973465;28;20030;-64
2023/09/19 09:23:23;;;;;;;8.18;1.98;;;;;;;;;;4973571;28;20378;-64
2023/09/19 09:25:56;;;;;;;3.80;1.63;;;;;;;;;;4973130;28;20034;-63
2023/09/19 09:28:27;;;;;;;6.43;1.52;;;;;;;;;;4972095;28;20412;-67
2023/09/19 09:30:54;;;;;;;8.73;1.90;;;;;;;;;;4974051;28;20038;-65
2023/09/19 09:33:21;;;;;;;7.18;1.60;;;;;;;;;;4976938;28;20365;-64
2023/09/19 09:35:53;;;;;;;6.32;1.80;;;;;;;;;;4976962;28;20102;-66
2023/09/19 09:38:32;;;;;;;6.95;1.50;;;;;;;;;;4976682;28;20440;-67
2023/09/19 09:41:06;;;;;;;6.90;1.87;;;;;;;;;;4959931;28;20090;-64
2023/09/19 09:43:35;;;;;;;6.88;1.65;;;;;;;;;;4956239;28;20080;-65
2023/09/19 09:51:47;;;;;;;4.03;1.65;;;;;;;;;;4957337;29;20186;-64
2023/09/19 09:54:16;;;;;;;9.57;2.20;;;;;;;;;;4957224;28;20488;-64
2023/09/19 09:56:59;;;;;;;4.63;1.50;;;;;;;;;;4957108;28;20384;-63
2023/09/19 10:02:39;;;;;;;5.45;1.80;;;;;;;;;;4956862;29;20077;-64
2023/09/19 10:05:28;;;;;;;13.43;1.92;;;;;;;;;;4957213;28;20026;-64
2023/09/19 10:08:08;;;;;;;3.40;1.67;;;;;;;;;;4971880;28;20038;-63
2023/09/19 10:13:12;;;;;;;5.45;1.77;;;;;;;;;;4976340;28;19914;-66
2023/09/19 10:15:38;;;;;;;5.13;1.67;;;;;;;;;;4976212;28;20034;-66
2023/09/19 10:18:10;;;;;;;5.07;1.75;;;;;;;;;;4976259;28;20252;-66
2023/09/19 10:20:38;;;;;;;5.82;2.17;;;;;;;;;;4976139;28;20400;-64
2023/09/19 10:23:10;;;;;;;4.28;1.60;;;;;;;;;;4976167;28;20039;-67
2023/09/19 10:25:38;;;;;;;6.68;1.70;;;;;;;;;;4975690;28;20053;-66
2023/09/19 10:28:10;;;;;;;7.65;1.50;;;;;;;;;;4975759;28;20493;-64
2023/09/19 10:30:47;;;;;;;4.93;1.60;;;;;;;;;;4975812;28;20046;-67
2023/09/19 10:33:14;;;;;;;6.25;1.50;;;;;;;;;;4975955;28;20492;-64
2023/09/19 10:35:44;;;;;;;6.90;1.90;;;;;;;;;;4975768;28;20476;-66
2023/09/19 10:38:11;;;;;;;5.72;1.60;;;;;;;;;;4975583;28;20525;-66
2023/09/19 10:40:40;;;;;;;5.22;1.60;;;;;;;;;;4961843;28;20035;-64
2023/09/19 10:43:06;;;;;;;6.15;1.83;;;;;;;;;;4955576;28;20027;-63
2023/09/19 10:45:33;;;;;;;4.25;1.77;;;;;;;;;;4956285;28;20082;-65
2023/09/19 10:48:00;;;;;;;6.47;1.98;;;;;;;;;;4956176;28;20046;-66
2023/09/19 10:50:31;;;;;;;8.98;1.90;;;;;;;;;;4956175;28;20078;-64
2023/09/19 10:53:04;;;;;;;6.18;1.70;;;;;;;;;;4956043;28;20030;-67
2023/09/19 10:55:32;;;;;;;5.03;1.77;;;;;;;;;;4956357;28;20031;-64
2023/09/19 10:58:14;;;;;;;6.30;1.85;;;;;;;;;;4956076;28;20114;-64
2023/09/19 11:00:53;;;;;;;5.05;1.60;;;;;;;;;;4955880;28;20043;-65
2023/09/19 11:03:25;;;;;;;6.78;2.22;;;;;;;;;;4956096;29;20122;-65
2023/09/19 11:06:13;;;;;;;4.85;1.83;;;;;;;;;;4955880;28;20043;-65
2023/09/19 11:08:51;;;;;;;4.93;1.75;;;;;;;;;;4955785;28;20034;-64
2023/09/19 11:11:38;;;;;;;3.03;1.65;;;;;;;;;;4955773;28;20086;-66
2023/09/19 11:14:29;;;;;;;8.38;1.63;;;;;;;;;;4956059;29;20543;-64
2023/09/19 11:17:07;;;;;;;7.38;1.73;;;;;;;;;;4955725;28;20548;-64
2023/09/19 11:20:15;;;;;;;6.18;1.58;;;;;;;;;;4955352;28;20042;-65
2023/09/19 11:22:50;;;;;;;4.18;1.80;;;;;;;;;;4955528;29;20027;-65
2023/09/19 11:25:30;;;;;;;5.15;1.60;;;;;;;;;;4966979;28;20092;-64
2023/09/19 11:28:21;;;;;;;6.63;1.60;;;;;;;;;;4974696;28;20026;-64
2023/09/19 11:30:54;;;;;;;6.38;1.70;;;;;;;;;;4974560;28;20035;-64
2023/09/19 11:33:46;;;;;;;6.35;1.75;;;;;;;;;;4974283;28;20460;-64
2023/09/19 11:36:15;;;;;;;8.18;1.67;;;;;;;;;;4974297;28;20113;-67
2023/09/19 11:38:47;;;;;;;3.28;1.40;;;;;;;;;;4974384;28;20034;-64
2023/09/19 11:41:39;;;;;;;3.78;1.40;;;;;;;;;;4955820;28;20102;-66
2023/09/19 11:44:10;;;;;;;5.43;1.45;;;;;;;;;;4955270;28;20038;-64
2023/09/19 11:47:06;;;;;;;5.38;1.50;;;;;;;;;;4955189;28;20115;-65
2023/09/19 11:49:32;;;;;;;5.70;1.60;;;;;;;;;;4945519;29;20039;-67
2023/09/19 11:52:05;;;;;;;4.85;1.52;;;;;;;;;;4954862;28;20035;-66
2023/09/19 11:54:32;;;;;;;4.18;1.58;;;;;;;;;;4954852;28;20544;-64
2023/09/19 11:56:58;;;;;;;4.80;1.50;;;;;;;;;;4955156;28;20109;-65
2023/09/19 11:59:29;;;;;;;3.95;1.70;;;;;;;;;;4954786;28;20019;-66
2023/09/19 12:01:59;;;;;;;3.70;1.55;;;;;;;;;;4954941;28;20133;-64
2023/09/19 12:04:39;;;;;;;4.20;1.40;;;;;;;;;;4954919;28;20035;-66
2023/09/19 12:07:15;;;;;;;4.18;1.63;;;;;;;;;;4962914;28;20088;-67
2023/09/19 12:09:47;;;;;;;3.63;1.58;;;;;;;;;;4974056;28;20043;-65
2023/09/19 12:12:29;;;;;;;3.63;1.88;;;;;;;;;;4974175;28;20046;-65
2023/09/19 12:14:59;;;;;;;5.05;1.75;;;;;;;;;;4973977;28;20049;-66
2023/09/19 12:17:44;;;;;;;5.18;1.80;;;;;;;;;;4974085;28;20033;-67
2023/09/19 12:20:13;;;;;;;5.28;1.92;;;;;;;;;;4973658;28;20042;-64
2023/09/19 12:22:43;;;;;;;4.30;1.80;;;;;;;;;;4973865;28;20067;-66
2023/09/19 12:25:11;;;;;;;4.45;1.58;;;;;;;;;;4973777;28;20023;-66
2023/09/19 12:27:52;;;;;;;4.63;1.60;;;;;;;;;;4973498;28;20035;-64
2023/09/19 12:30:18;;;;;;;4.40;1.48;;;;;;;;;;4954416;29;20101;-67
2023/09/19 12:32:44;;;;;;;5.30;1.92;;;;;;;;;;4954487;29;20094;-66
2023/09/19 12:35:17;;;;;;;5.47;1.75;;;;;;;;;;4954441;29;20098;-66
2023/09/19 12:37:48;;;;;;;4.28;1.40;;;;;;;;;;4954698;29;20133;-64
2023/09/19 12:40:22;;;;;;;6.93;1.90;;;;;;;;;;4960623;28;20039;-66
2023/09/19 12:42:49;;;;;;;6.45;1.90;;;;;;;;;;4954708;28;20035;-66
2023/09/19 12:45:18;;;;;;;16.23;2.40;;;;;;;;;;4954541;28;20019;-67
2023/09/19 12:48:43;;;;;;;6.13;1.97;;;;;;;;;;4954402;28;20503;-65
2023/09/19 12:51:12;;;;;;;4.35;1.60;;;;;;;;;;4932768;29;20258;-66
2023/09/19 12:53:43;;;;;;;6.28;1.95;;;;;;;;;;4933142;29;20102;-64
2023/09/19 12:56:15;;;;;;;6.30;1.70;;;;;;;;;;4933194;29;20035;-67
2023/09/19 12:58:54;;;;;;;4.15;1.60;;;;;;;;;;4933102;29;20435;-66
2023/09/19 13:01:22;;;;;;;8.93;1.83;;;;;;;;;;4933011;29;20194;-67
2023/09/19 13:04:18;;;;;;;6.93;1.90;;;;;;;;;;4932841;29;20028;-64
2023/09/19 13:06:44;;;;;;;7.20;1.80;;;;;;;;;;4934606;29;20047;-67
2023/09/19 13:09:10;;;;;;;8.30;2.22;;;;;;;;;;4936724;29;20091;-66
2023/09/19 13:11:40;;;;;;;4.78;2.00;;;;;;;;;;4936564;29;20066;-66
2023/09/19 13:14:18;;;;;;;4.70;1.77;;;;;;;;;;4936907;29;20027;-66
2023/09/19 13:17:03;;;;;;;6.25;1.58;;;;;;;;;;4936545;29;20363;-67
2023/09/19 13:19:40;;;;;;;4.50;1.50;;;;;;;;;;4936418;29;20048;-65
2023/09/19 13:22:49;;;;;;;5.53;2.15;;;;;;;;;;4936506;29;20477;-64
2023/09/19 13:25:19;;;;;;;3.50;1.55;;;;;;;;;;4960430;28;20035;-65
2023/09/19 13:27:53;;;;;;;3.95;1.60;;;;;;;;;;4977104;28;20031;-63
2023/09/19 13:30:20;;;;;;;9.05;1.92;;;;;;;;;;4957709;29;20102;-63
2023/09/19 13:32:47;;;;;;;7.63;2.08;;;;;;;;;;4957505;28;20035;-65
2023/09/19 13:35:13;;;;;;;4.65;1.75;;;;;;;;;;4957404;28;20489;-64
2023/09/19 13:37:42;;;;;;;8.07;1.80;;;;;;;;;;4957588;28;20054;-66
2023/09/19 13:40:12;;;;;;;9.30;2.70;;;;;;;;;;4963566;28;20037;-64
2023/09/19 13:42:37;;;;;;;4.40;1.63;;;;;;;;;;4957559;28;20035;-64
2023/09/19 13:45:07;;;;;;;5.32;1.90;;;;;;;;;;4957539;28;20119;-64
2023/09/19 13:47:33;;;;;;;7.28;1.88;;;;;;;;;;4957227;28;20031;-63
2023/09/19 13:50:03;;;;;;;6.38;1.70;;;;;;;;;;4957362;28;20035;-64
2023/09/19 13:52:30;;;;;;;5.80;1.70;;;;;;;;;;4957191;29;20038;-63
2023/09/19 13:54:59;;;;;;;8.15;1.95;;;;;;;;;;4957286;28;20030;-63
2023/09/19 13:57:29;;;;;;;4.45;1.70;;;;;;;;;;4957148;28;20027;-63
2023/09/19 13:59:54;;;;;;;6.07;2.13;;;;;;;;;;4957208;28;20027;-65
2023/09/19 14:02:22;;;;;;;4.88;1.75;;;;;;;;;;4956689;28;20035;-63
2023/09/19 14:04:49;;;;;;;6.88;1.80;;;;;;;;;;4957085;28;20027;-63
2023/09/19 14:07:15;;;;;;;5.82;2.08;;;;;;;;;;4966508;28;20035;-64
2023/09/19 14:09:40;;;;;;;5.15;1.60;;;;;;;;;;4974970;28;20050;-65
2023/09/19 14:12:06;;;;;;;5.20;1.77;;;;;;;;;;4976272;28;20130;-63
2023/09/19 14:14:32;;;;;;;5.53;1.90;;;;;;;;;;4976136;28;20039;-66
2023/09/19 14:17:00;;;;;;;5.15;1.55;;;;;;;;;;4975414;28;20027;-65
2023/09/19 14:19:28;;;;;;;5.93;1.70;;;;;;;;;;4975354;28;20089;-65
2023/09/19 14:21:57;;;;;;;3.72;1.67;;;;;;;;;;4975981;28;20030;-66
2023/09/19 14:24:22;;;;;;;4.38;1.48;;;;;;;;;;4975941;28;20135;-66
2023/09/19 14:26:49;;;;;;;5.75;1.67;;;;;;;;;;4975985;28;20039;-66
2023/09/19 14:29:15;;;;;;;4.32;1.63;;;;;;;;;;4975893;28;20039;-66
2023/09/19 14:31:41;;;;;;;5.90;1.70;;;;;;;;;;4975730;28;20353;-65
2023/09/19 14:34:09;;;;;;;6.55;1.65;;;;;;;;;;4975796;28;20089;-66
2023/09/19 14:36:35;;;;;;;10.77;1.50;;;;;;;;;;4975669;28;20361;-66
2023/09/19 14:39:00;;;;;;;7.53;1.75;;;;;;;;;;4974242;28;20090;-67
2023/09/19 14:41:26;;;;;;;6.75;1.83;;;;;;;;;;4956248;29;20533;-64
2023/09/19 14:43:52;;;;;;;5.72;1.70;;;;;;;;;;4956324;28;20037;-65
2023/09/19 14:46:18;;;;;;;7.30;1.90;;;;;;;;;;4955986;28;20169;-66
2023/09/19 14:48:44;;;;;;;6.63;1.48;;;;;;;;;;4956287;28;20027;-63
2023/09/19 14:51:09;;;;;;;5.78;1.50;;;;;;;;;;4956156;28;20038;-65
2023/09/19 14:53:37;;;;;;;6.65;1.60;;;;;;;;;;4955971;28;20039;-64
2023/09/19 14:56:03;;;;;;;5.70;1.60;;;;;;;;;;4955692;28;20384;-65
2023/09/19 14:58:30;;;;;;;4.60;1.60;;;;;;;;;;4956015;28;20033;-63
2023/09/19 15:01:05;;;;;;;5.00;1.40;;;;;;;;;;4955717;28;20126;-64
2023/09/19 15:03:31;;;;;;;6.03;1.83;;;;;;;;;;4954862;28;20039;-66
2023/09/19 15:06:08;;;;;;;7.38;1.50;;;;;;;;;;4955941;28;20425;-64
2023/09/19 15:08:35;;;;;;;6.57;1.45;;;;;;;;;;4956041;28;20035;-63
2023/09/19 15:11:04;;;;;;;6.25;1.40;;;;;;;;;;4955756;28;20501;-65